Time;durP1;ratioP1;P1;durP2;ratioP2;P2;SDS_P1;SDS_P2;PMS_P1;PMS_P2;Temp;Humidity;BMP_temperature;BMP_pressure;BME280_temperature;BME280_humidity;BME280_pressure;Samples;Min_cycle;Max_cycle;Signal;HPM_P1;HPM_P2
2021/12/10 00:01:47;;;;;;;9.80;6.20;;;4.50;98.50;;;;;;5078760;28;20259;-60
2021/12/10 00:04:17;;;;;;;8.30;6.13;;;4.50;98.70;;;;;;5078646;28;20224;-57
2021/12/10 00:06:56;;;;;;;8.38;6.10;;;4.50;98.50;;;;;;5077485;28;20196;-60
2021/12/10 00:09:28;;;;;;;9.20;6.53;;;4.50;98.50;;;;;;5076463;28;20235;-60
2021/12/10 00:12:00;;;;;;;9.55;6.00;;;4.50;98.50;;;;;;5076695;28;20196;-60
2021/12/10 00:14:30;;;;;;;8.35;5.75;;;4.50;98.50;;;;;;5075266;28;20213;-60
2021/12/10 00:16:59;;;;;;;7.60;6.80;;;4.50;98.60;;;;;;5074701;28;20637;-60
2021/12/10 00:19:32;;;;;;;10.25;5.85;;;4.50;98.70;;;;;;5074776;28;20622;-61
2021/12/10 00:22:03;;;;;;;8.30;6.50;;;4.50;98.80;;;;;;5075003;28;20196;-61
2021/12/10 00:24:31;;;;;;;8.25;6.00;;;4.50;98.80;;;;;;5076536;28;20200;-59
2021/12/10 00:27:03;;;;;;;7.30;6.22;;;4.50;98.90;;;;;;5078573;28;20208;-60
2021/12/10 00:29:30;;;;;;;8.77;5.97;;;4.40;98.70;;;;;;5077998;28;20704;-60
2021/12/10 00:32:04;;;;;;;7.82;6.88;;;4.40;98.80;;;;;;5078075;28;20695;-60
2021/12/10 00:34:37;;;;;;;6.88;5.82;;;4.40;98.90;;;;;;5077374;28;20236;-60
2021/12/10 00:37:10;;;;;;;8.80;7.20;;;4.40;98.90;;;;;;5077097;28;20193;-60
2021/12/10 00:39:41;;;;;;;8.48;7.03;;;4.40;98.90;;;;;;5077034;28;20237;-60
2021/12/10 00:42:12;;;;;;;13.38;6.82;;;4.40;98.90;;;;;;5076730;28;20189;-59
2021/12/10 00:44:39;;;;;;;9.95;7.20;;;4.40;99.10;;;;;;5077195;28;20177;-59
2021/12/10 00:47:06;;;;;;;7.30;6.18;;;4.40;99.10;;;;;;5076954;28;20209;-59
2021/12/10 00:49:34;;;;;;;9.85;6.80;;;4.40;99.10;;;;;;5076643;28;20232;-59
2021/12/10 00:52:02;;;;;;;11.20;7.28;;;4.40;99.10;;;;;;5076942;28;20554;-60
2021/12/10 00:54:29;;;;;;;14.00;7.28;;;4.40;99.10;;;;;;5076859;28;20221;-60
2021/12/10 00:56:58;;;;;;;12.55;7.32;;;4.40;99.20;;;;;;5077195;28;20673;-60
2021/12/10 00:59:25;;;;;;;10.30;6.72;;;4.40;99.30;;;;;;5076754;28;20708;-59
2021/12/10 01:01:52;;;;;;;10.68;7.38;;;4.40;99.30;;;;;;5077872;28;20200;-59
2021/12/10 01:04:25;;;;;;;12.27;7.15;;;4.40;99.40;;;;;;5077207;28;20243;-60
2021/12/10 01:06:53;;;;;;;11.88;6.93;;;4.50;99.50;;;;;;5077292;28;20281;-60
2021/12/10 01:09:24;;;;;;;8.32;7.45;;;4.50;99.40;;;;;;5076837;28;20224;-59
2021/12/10 01:11:54;;;;;;;11.57;6.15;;;4.50;99.50;;;;;;5077264;28;20547;-60
2021/12/10 01:14:37;;;;;;;8.10;7.03;;;4.50;99.50;;;;;;5077180;28;20252;-59
2021/12/10 01:25:32;;;;;;;8.95;7.22;;;4.50;99.60;;;;;;5077136;28;20180;-59
2021/12/10 01:28:00;;;;;;;10.23;8.00;;;4.50;99.60;;;;;;5076868;28;20193;-60
2021/12/10 01:30:33;;;;;;;7.45;6.22;;;4.50;99.60;;;;;;5077156;28;20209;-60
2021/12/10 01:33:06;;;;;;;8.50;7.22;;;4.50;99.60;;;;;;5078497;28;20193;-60
2021/12/10 01:35:37;;;;;;;8.15;6.88;;;4.50;99.70;;;;;;5080160;28;20189;-58
2021/12/10 01:38:06;;;;;;;12.45;8.18;;;4.50;99.80;;;;;;5079094;28;20189;-60
2021/12/10 01:40:36;;;;;;;9.85;7.47;;;4.50;99.90;;;;;;5077320;28;20193;-60
2021/12/10 01:43:07;;;;;;;11.27;8.10;;;4.50;99.80;;;;;;5077367;28;20232;-60
2021/12/10 01:45:45;;;;;;;11.02;8.38;;;4.50;99.90;;;;;;5077485;28;20556;-60
2021/12/10 01:48:15;;;;;;;10.15;8.25;;;4.50;99.90;;;;;;5077895;28;20640;-59
2021/12/10 01:50:42;;;;;;;13.00;8.10;;;4.50;99.90;;;;;;5077514;28;20181;-59
2021/12/10 01:53:12;;;;;;;10.43;8.00;;;4.60;99.90;;;;;;5077387;28;20299;-61
2021/12/10 01:55:47;;;;;;;8.80;7.30;;;4.60;99.90;;;;;;5077371;28;20292;-61
2021/12/10 01:58:17;;;;;;;11.80;9.23;;;4.60;99.90;;;;;;5077642;28;20185;-60
2021/12/10 02:00:50;;;;;;;10.25;8.05;;;4.60;99.90;;;;;;5077493;28;20197;-60
2021/12/10 02:03:17;;;;;;;12.35;8.70;;;4.60;99.90;;;;;;5077082;28;20540;-60
2021/12/10 02:05:45;;;;;;;9.73;8.57;;;4.60;99.90;;;;;;5075953;28;20205;-59
2021/12/10 02:08:12;;;;;;;10.40;8.63;;;4.60;99.90;;;;;;5075791;28;20676;-59
2021/12/10 02:10:39;;;;;;;10.10;7.95;;;4.60;99.90;;;;;;5075591;28;20209;-59
2021/12/10 02:13:06;;;;;;;11.30;9.00;;;4.60;99.90;;;;;;5075959;28;20200;-59
2021/12/10 02:15:33;;;;;;;10.52;8.95;;;4.60;99.90;;;;;;5075808;28;20228;-60
2021/12/10 02:18:02;;;;;;;11.38;9.23;;;4.60;99.90;;;;;;5075955;28;20197;-59
2021/12/10 02:20:32;;;;;;;9.15;7.45;;;4.60;99.90;;;;;;5078231;28;20205;-59
2021/12/10 02:23:03;;;;;;;10.02;8.20;;;4.60;99.90;;;;;;5078277;28;20246;-60
2021/12/10 02:25:31;;;;;;;9.70;8.70;;;4.60;99.90;;;;;;5077276;28;20630;-60
2021/12/10 02:27:59;;;;;;;11.50;8.55;;;4.60;99.90;;;;;;5076082;28;20197;-59
2021/12/10 02:30:29;;;;;;;10.35;8.00;;;4.60;99.90;;;;;;5077460;28;20200;-60
2021/12/10 02:32:56;;;;;;;10.57;8.50;;;4.60;99.90;;;;;;5076172;28;20227;-61
2021/12/10 02:35:25;;;;;;;10.77;7.97;;;4.60;99.90;;;;;;5075022;28;20727;-60
2021/12/10 02:37:53;;;;;;;9.57;8.23;;;4.60;99.90;;;;;;5074822;28;20657;-60
2021/12/10 02:40:23;;;;;;;8.35;7.45;;;4.60;99.90;;;;;;5074859;28;20212;-60
2021/12/10 02:42:52;;;;;;;10.98;8.73;;;4.60;99.90;;;;;;5075166;28;20262;-59
2021/12/10 02:45:21;;;;;;;10.68;8.93;;;4.50;99.90;;;;;;5074644;28;20205;-60
2021/12/10 02:47:48;;;;;;;12.80;8.60;;;4.50;99.90;;;;;;5073924;28;20623;-60
2021/12/10 02:50:17;;;;;;;8.98;7.65;;;4.50;99.90;;;;;;5074615;28;20221;-59
2021/12/10 02:52:45;;;;;;;10.23;7.70;;;4.50;99.90;;;;;;5074589;28;20208;-60
2021/12/10 02:55:15;;;;;;;9.20;7.30;;;4.50;99.90;;;;;;5074514;28;20225;-61
2021/12/10 02:57:44;;;;;;;9.52;7.80;;;4.40;99.90;;;;;;5074228;28;20211;-59
2021/12/10 03:00:16;;;;;;;8.77;7.55;;;4.40;99.90;;;;;;5074381;28;20569;-60
2021/12/10 03:02:43;;;;;;;11.23;8.35;;;4.40;99.90;;;;;;5074454;28;20193;-60
2021/12/10 03:05:12;;;;;;;8.52;7.63;;;4.30;99.90;;;;;;5073991;28;20204;-60
2021/12/10 03:07:40;;;;;;;11.60;7.80;;;4.20;99.90;;;;;;5076098;28;20201;-61
2021/12/10 03:10:11;;;;;;;10.73;8.30;;;4.20;99.90;;;;;;5080318;28;20567;-59
2021/12/10 03:12:39;;;;;;;11.32;8.05;;;4.10;99.90;;;;;;5076791;28;20191;-59
2021/12/10 03:15:09;;;;;;;10.90;8.07;;;4.00;99.90;;;;;;5073871;28;20574;-60
2021/12/10 03:17:36;;;;;;;9.93;8.20;;;4.00;99.90;;;;;;5074464;28;20209;-60
2021/12/10 03:20:08;;;;;;;9.93;7.90;;;4.00;99.90;;;;;;5077988;28;20221;-60
2021/12/10 03:22:37;;;;;;;9.93;8.10;;;4.00;99.90;;;;;;5083533;28;20189;-60
2021/12/10 03:25:05;;;;;;;9.05;7.75;;;3.90;99.90;;;;;;5084106;28;20228;-60
2021/12/10 03:27:32;;;;;;;14.02;8.40;;;3.90;99.90;;;;;;5083343;28;20197;-60
2021/12/10 03:29:59;;;;;;;11.10;8.68;;;4.00;99.90;;;;;;5075778;28;20228;-60
2021/12/10 03:32:32;;;;;;;13.40;10.05;;;4.00;99.90;;;;;;5074804;28;20673;-60
2021/12/10 03:35:03;;;;;;;10.80;8.20;;;4.10;99.90;;;;;;5074394;28;20300;-59
2021/12/10 03:37:30;;;;;;;11.35;9.00;;;4.10;99.90;;;;;;5074267;28;20601;-59
2021/12/10 03:39:57;;;;;;;11.48;8.45;;;4.20;99.90;;;;;;5073671;28;20604;-60
2021/12/10 03:42:25;;;;;;;11.02;8.43;;;4.20;99.90;;;;;;5073718;28;20197;-60
2021/12/10 03:44:52;;;;;;;13.90;8.32;;;4.30;99.90;;;;;;5074529;28;20205;-60
2021/12/10 03:47:19;;;;;;;11.65;9.27;;;4.30;99.90;;;;;;5074238;28;20612;-60
2021/12/10 03:49:47;;;;;;;10.52;8.32;;;4.30;99.90;;;;;;5073825;28;20221;-59
2021/12/10 03:52:15;;;;;;;11.55;9.20;;;4.40;99.90;;;;;;5073780;28;20201;-60
2021/12/10 03:54:43;;;;;;;10.50;9.35;;;4.40;99.90;;;;;;5073652;28;20232;-61
2021/12/10 03:57:10;;;;;;;12.38;9.30;;;4.40;99.90;;;;;;5073435;28;20711;-60
2021/12/10 03:59:38;;;;;;;12.20;9.65;;;4.40;99.90;;;;;;5072940;28;20708;-59
2021/12/10 04:02:07;;;;;;;12.80;9.50;;;4.50;99.90;;;;;;5073131;28;20197;-59
2021/12/10 04:04:38;;;;;;;14.15;10.65;;;4.50;99.90;;;;;;5073488;28;20204;-59
2021/12/10 04:09:01;;;;;;;11.98;9.95;;;4.50;99.90;;;;;;5091631;27;20566;-59
2021/12/10 04:11:29;;;;;;;10.52;8.98;;;4.50;99.90;;;;;;5091033;28;20200;-60
2021/12/10 04:13:57;;;;;;;14.68;10.48;;;4.50;99.90;;;;;;5090704;28;20684;-59
2021/12/10 04:16:26;;;;;;;10.57;9.40;;;4.50;99.90;;;;;;5091013;28;20200;-60
2021/12/10 04:18:57;;;;;;;14.32;10.50;;;4.50;99.90;;;;;;5090743;28;20303;-61
2021/12/10 04:21:24;;;;;;;13.02;8.90;;;4.50;99.90;;;;;;5087412;22;20697;-55
2021/12/10 04:23:52;;;;;;;11.63;8.93;;;4.50;99.90;;;;;;5050008;28;20208;-56
2021/12/10 04:26:24;;;;;;;10.75;8.70;;;4.50;99.90;;;;;;5050287;28;20216;-56
2021/12/10 04:28:51;;;;;;;9.93;7.75;;;4.50;99.90;;;;;;5050063;28;20297;-56
2021/12/10 04:31:19;;;;;;;11.55;8.85;;;4.50;99.90;;;;;;5049822;28;20221;-56
2021/12/10 04:33:46;;;;;;;9.35;8.25;;;4.50;99.90;;;;;;5050205;28;20205;-56
2021/12/10 04:36:13;;;;;;;13.95;9.20;;;4.40;99.90;;;;;;5050202;28;20201;-56
2021/12/10 04:38:41;;;;;;;11.07;9.05;;;4.40;99.90;;;;;;5049802;28;20202;-56
2021/12/10 04:41:11;;;;;;;9.88;8.05;;;4.40;99.90;;;;;;5050033;28;20222;-55
2021/12/10 04:43:42;;;;;;;11.38;8.63;;;4.50;99.90;;;;;;5050425;28;20209;-56
2021/12/10 04:46:09;;;;;;;10.68;8.48;;;4.50;99.90;;;;;;5049871;28;20201;-56
2021/12/10 04:48:53;;;;;;;12.75;8.90;;;4.40;99.90;;;;;;5049776;28;20604;-56
2021/12/10 04:51:24;;;;;;;14.70;9.10;;;4.40;99.90;;;;;;5050147;28;20222;-56
2021/12/10 04:53:52;;;;;;;10.63;8.45;;;4.40;99.90;;;;;;5050016;28;20619;-55
2021/12/10 04:56:19;;;;;;;13.23;8.73;;;4.40;99.90;;;;;;5050244;28;20206;-56
2021/12/10 04:58:48;;;;;;;13.20;8.98;;;4.40;99.90;;;;;;5049899;28;20205;-56
2021/12/10 05:01:16;;;;;;;12.15;9.10;;;4.40;99.90;;;;;;5049941;28;20225;-56
2021/12/10 05:03:43;;;;;;;11.07;8.55;;;4.40;99.90;;;;;;5050072;28;20205;-56
2021/12/10 05:06:14;;;;;;;11.73;8.85;;;4.40;99.90;;;;;;5050319;28;20205;-55
2021/12/10 05:08:45;;;;;;;10.32;8.52;;;4.40;99.90;;;;;;5050147;28;20585;-55
2021/12/10 05:11:18;;;;;;;11.93;7.78;;;4.40;99.90;;;;;;5049574;28;20265;-55
2021/12/10 05:13:53;;;;;;;10.52;8.38;;;4.40;99.90;;;;;;5049389;28;20193;-55
2021/12/10 05:16:25;;;;;;;11.85;8.27;;;4.40;99.90;;;;;;5049488;28;20185;-55
2021/12/10 05:18:57;;;;;;;9.75;8.00;;;4.40;99.90;;;;;;5044129;28;20187;-55
2021/12/10 05:21:25;;;;;;;11.30;7.82;;;4.40;99.90;;;;;;5035774;28;20226;-55
2021/12/10 05:23:52;;;;;;;12.10;8.88;;;4.40;99.90;;;;;;5036052;28;20214;-57
2021/12/10 05:26:20;;;;;;;12.60;9.60;;;4.40;99.90;;;;;;5036056;28;20222;-54
2021/12/10 05:28:47;;;;;;;12.23;8.48;;;4.40;99.90;;;;;;5035639;28;20728;-55
2021/12/10 05:31:16;;;;;;;11.80;8.65;;;4.30;99.90;;;;;;5035963;28;20222;-55
2021/12/10 05:33:43;;;;;;;11.25;8.25;;;4.30;99.90;;;;;;5035907;28;20203;-55
2021/12/10 05:36:10;;;;;;;10.77;7.38;;;4.30;99.90;;;;;;5035628;28;20670;-55
2021/12/10 05:38:38;;;;;;;13.65;8.35;;;4.20;99.90;;;;;;5035476;28;20198;-55
2021/12/10 05:41:09;;;;;;;11.13;8.63;;;4.20;99.90;;;;;;5035381;28;20222;-55
2021/12/10 05:43:37;;;;;;;13.70;8.65;;;4.20;99.90;;;;;;5035510;28;20653;-55
2021/12/10 05:46:04;;;;;;;10.00;7.57;;;4.20;99.90;;;;;;5035598;28;20206;-55
2021/12/10 05:48:33;;;;;;;8.70;7.80;;;4.20;99.90;;;;;;5036029;28;20229;-55
2021/12/10 05:51:00;;;;;;;11.98;8.98;;;4.30;99.90;;;;;;5035291;28;20218;-55
2021/12/10 05:53:28;;;;;;;9.52;7.95;;;4.30;99.90;;;;;;5035294;28;20578;-54
2021/12/10 05:55:56;;;;;;;11.30;8.77;;;4.30;99.90;;;;;;5035498;28;20594;-55
2021/12/10 05:58:24;;;;;;;10.30;8.02;;;4.30;99.90;;;;;;5035171;28;20198;-54
2021/12/10 06:00:54;;;;;;;11.32;7.15;;;4.30;99.90;;;;;;5035228;28;20245;-54
2021/12/10 06:03:23;;;;;;;10.90;7.78;;;4.40;99.90;;;;;;5035492;28;20581;-53
2021/12/10 06:05:52;;;;;;;12.95;7.45;;;4.40;99.90;;;;;;5035042;28;20210;-53
2021/12/10 06:08:19;;;;;;;9.20;7.43;;;4.40;99.90;;;;;;5035932;28;20292;-55
2021/12/10 06:10:48;;;;;;;9.77;7.80;;;4.40;99.90;;;;;;5034958;28;20304;-55
2021/12/10 06:13:16;;;;;;;9.30;7.72;;;4.50;99.90;;;;;;5034798;28;20297;-54
2021/12/10 06:15:43;;;;;;;9.55;7.30;;;4.40;99.90;;;;;;5034900;28;20202;-55
2021/12/10 06:18:11;;;;;;;8.68;7.20;;;4.50;99.90;;;;;;5034974;28;20289;-54
2021/12/10 06:20:46;;;;;;;9.73;7.63;;;4.40;99.90;;;;;;5034949;28;20241;-54
2021/12/10 06:23:15;;;;;;;9.32;7.68;;;4.40;99.90;;;;;;5035018;28;20208;-54
2021/12/10 06:25:43;;;;;;;11.18;8.88;;;4.40;99.90;;;;;;5034877;28;20285;-54
2021/12/10 06:28:11;;;;;;;9.20;7.45;;;4.40;99.90;;;;;;5034534;28;20225;-54
2021/12/10 06:30:41;;;;;;;10.18;8.05;;;4.30;99.90;;;;;;5033815;28;20244;-52
2021/12/10 06:33:11;;;;;;;9.55;7.45;;;4.20;99.90;;;;;;5035143;28;20197;-53
2021/12/10 06:35:40;;;;;;;9.65;7.05;;;4.10;99.90;;;;;;5035100;28;20260;-53
2021/12/10 06:38:08;;;;;;;13.35;8.25;;;4.10;99.90;;;;;;5034380;28;20205;-53
2021/12/10 06:40:38;;;;;;;13.95;8.38;;;4.10;99.90;;;;;;5034496;28;20222;-54
2021/12/10 06:43:06;;;;;;;11.35;7.80;;;4.10;99.90;;;;;;5034688;28;20572;-54
2021/12/10 06:45:35;;;;;;;9.90;8.10;;;4.10;99.90;;;;;;5034516;28;20214;-54
2021/12/10 06:48:05;;;;;;;10.60;8.35;;;4.10;99.90;;;;;;5033814;28;20218;-53
2021/12/10 06:50:36;;;;;;;12.63;8.13;;;4.10;99.90;;;;;;5034274;28;20226;-54
2021/12/10 06:53:04;;;;;;;17.20;8.23;;;4.10;99.90;;;;;;5034684;28;20208;-54
2021/12/10 06:55:32;;;;;;;11.02;8.20;;;4.10;99.90;;;;;;5034205;28;20285;-54
2021/12/10 06:58:01;;;;;;;10.90;7.70;;;4.20;99.90;;;;;;5033969;28;20205;-54
2021/12/10 07:00:36;;;;;;;12.15;8.63;;;4.20;99.90;;;;;;5034000;28;20272;-55
2021/12/10 07:03:04;;;;;;;10.73;7.82;;;4.30;99.90;;;;;;5034327;28;20190;-55
2021/12/10 07:05:32;;;;;;;9.25;7.47;;;4.30;99.90;;;;;;5033900;28;20203;-55
2021/12/10 07:07:59;;;;;;;11.85;8.30;;;4.40;99.90;;;;;;5034145;28;20308;-55
2021/12/10 07:10:27;;;;;;;10.77;8.65;;;4.40;99.90;;;;;;5033688;28;20312;-55
2021/12/10 07:12:54;;;;;;;10.48;8.80;;;4.40;99.90;;;;;;5034037;28;20317;-55
2021/12/10 07:15:23;;;;;;;10.20;7.85;;;4.40;99.90;;;;;;5034057;28;20301;-55
2021/12/10 07:17:51;;;;;;;13.18;8.30;;;4.50;99.90;;;;;;5033911;28;20239;-55
2021/12/10 07:20:21;;;;;;;12.77;7.93;;;4.50;99.90;;;;;;5033244;28;20237;-54
2021/12/10 07:22:49;;;;;;;10.45;8.55;;;4.50;99.90;;;;;;5033807;28;20555;-55
2021/12/10 07:25:17;;;;;;;12.07;7.85;;;4.50;99.90;;;;;;5033792;28;20225;-55
2021/12/10 07:27:44;;;;;;;11.20;8.93;;;4.60;99.90;;;;;;5034275;28;20202;-55
2021/12/10 07:30:12;;;;;;;9.60;7.90;;;4.60;99.90;;;;;;5033322;28;20219;-56
2021/12/10 07:32:40;;;;;;;12.50;8.20;;;4.60;99.90;;;;;;5033224;28;20574;-55
2021/12/10 07:35:09;;;;;;;10.52;7.65;;;4.60;99.90;;;;;;5033460;28;20285;-55
2021/12/10 07:37:37;;;;;;;13.07;8.20;;;4.60;99.90;;;;;;5033376;28;20604;-56
2021/12/10 07:40:06;;;;;;;10.65;7.78;;;4.60;99.90;;;;;;5033447;28;20199;-56
2021/12/10 07:42:33;;;;;;;8.98;8.07;;;4.60;99.90;;;;;;5032865;28;20292;-56
2021/12/10 07:45:00;;;;;;;11.35;7.80;;;4.60;99.90;;;;;;5033113;28;20221;-56
2021/12/10 07:47:33;;;;;;;12.63;7.97;;;4.70;99.90;;;;;;5034219;28;20233;-54
2021/12/10 07:50:02;;;;;;;10.80;7.40;;;4.70;99.90;;;;;;5033256;28;20217;-56
2021/12/10 07:52:33;;;;;;;11.43;8.18;;;4.70;99.90;;;;;;5033414;28;20205;-56
2021/12/10 07:55:01;;;;;;;12.25;8.48;;;4.70;99.90;;;;;;5033653;28;20658;-56
2021/12/10 07:57:29;;;;;;;9.38;7.50;;;4.70;99.90;;;;;;5033333;28;20701;-56
2021/12/10 07:59:56;;;;;;;9.30;7.50;;;4.70;99.90;;;;;;5033629;28;20728;-56
2021/12/10 08:02:23;;;;;;;10.50;8.15;;;4.70;99.90;;;;;;5033253;28;20202;-57
2021/12/10 08:04:51;;;;;;;10.75;7.82;;;4.70;99.90;;;;;;5033068;28;20694;-56
2021/12/10 08:07:19;;;;;;;13.90;8.35;;;4.80;99.90;;;;;;5033289;28;20203;-56
2021/12/10 08:09:46;;;;;;;10.10;7.28;;;4.80;99.90;;;;;;5032748;28;20214;-56
2021/12/10 08:12:13;;;;;;;8.60;6.47;;;4.90;99.90;;;;;;5032875;28;20206;-56
2021/12/10 08:14:41;;;;;;;11.73;6.75;;;4.90;99.90;;;;;;5032830;28;20674;-56
2021/12/10 08:17:08;;;;;;;12.45;8.43;;;4.90;99.90;;;;;;5033289;28;20202;-56
2021/12/10 08:19:35;;;;;;;10.45;7.07;;;5.00;99.90;;;;;;5033032;28;20566;-56
2021/12/10 08:22:02;;;;;;;7.40;6.25;;;5.00;99.90;;;;;;5032458;28;20241;-56
2021/12/10 08:24:31;;;;;;;8.38;6.22;;;5.00;99.80;;;;;;5033261;28;20206;-56
2021/12/10 08:26:58;;;;;;;8.05;6.30;;;5.00;99.70;;;;;;5033176;28;20206;-55
2021/12/10 08:29:26;;;;;;;7.30;6.00;;;5.00;99.50;;;;;;5032620;28;20223;-56
2021/12/10 08:31:54;;;;;;;10.10;6.43;;;5.10;99.50;;;;;;5032853;28;20227;-56
2021/12/10 08:34:21;;;;;;;11.15;6.38;;;5.10;99.40;;;;;;5032795;28;20198;-55
2021/12/10 08:36:49;;;;;;;9.10;6.38;;;5.10;99.10;;;;;;5032738;28;20228;-56
2021/12/10 08:39:17;;;;;;;11.10;6.28;;;5.20;98.90;;;;;;5032460;28;20201;-56
2021/12/10 08:41:46;;;;;;;9.77;6.65;;;5.20;98.90;;;;;;5032650;28;20229;-56
2021/12/10 08:44:14;;;;;;;11.50;5.90;;;5.20;98.80;;;;;;5032248;28;20206;-56
2021/12/10 08:46:43;;;;;;;12.77;7.28;;;5.20;98.60;;;;;;5032199;28;20678;-56
2021/12/10 08:49:13;;;;;;;9.07;5.90;;;5.30;98.50;;;;;;5032682;28;20711;-56
2021/12/10 08:51:43;;;;;;;9.70;6.90;;;5.30;98.40;;;;;;5032624;28;20312;-56
2021/12/10 08:54:12;;;;;;;7.38;5.85;;;5.30;98.40;;;;;;5033809;28;20206;-56
2021/12/10 08:56:40;;;;;;;8.20;6.00;;;5.30;98.30;;;;;;5036411;28;20328;-55
2021/12/10 08:59:10;;;;;;;12.82;6.85;;;5.30;98.10;;;;;;5036309;28;20210;-55
2021/12/10 09:01:42;;;;;;;9.73;7.03;;;5.30;98.10;;;;;;5035844;28;20626;-56
2021/12/10 09:04:11;;;;;;;10.18;6.90;;;5.30;98.10;;;;;;5036007;28;20191;-55
2021/12/10 09:06:41;;;;;;;8.80;6.97;;;5.30;98.10;;;;;;5035915;28;20202;-55
2021/12/10 09:09:11;;;;;;;10.30;6.95;;;5.30;98.00;;;;;;5035739;28;20219;-56
2021/12/10 09:11:40;;;;;;;10.32;6.25;;;5.30;97.90;;;;;;5035917;28;20725;-55
2021/12/10 09:14:09;;;;;;;7.10;5.97;;;5.40;98.10;;;;;;5036632;28;20202;-55
2021/12/10 09:16:37;;;;;;;8.25;6.43;;;5.40;97.90;;;;;;5035684;28;20202;-56
2021/12/10 09:19:07;;;;;;;7.22;5.75;;;5.50;97.80;;;;;;5035943;28;20289;-56
2021/12/10 09:21:35;;;;;;;7.78;5.80;;;5.50;97.60;;;;;;5035445;28;20249;-55
2021/12/10 09:24:06;;;;;;;9.35;6.90;;;5.50;97.40;;;;;;5036196;28;20210;-56
2021/12/10 09:26:35;;;;;;;10.27;6.22;;;5.60;97.30;;;;;;5036117;28;20182;-56
2021/12/10 09:29:06;;;;;;;9.07;6.53;;;5.60;97.10;;;;;;5035810;28;20222;-55
2021/12/10 09:31:36;;;;;;;6.18;5.57;;;5.70;96.90;;;;;;5035789;28;20233;-57
2021/12/10 09:34:04;;;;;;;9.27;5.72;;;5.70;97.00;;;;;;5035987;28;20206;-57
2021/12/10 09:36:33;;;;;;;6.43;5.00;;;5.60;96.50;;;;;;5035559;28;20210;-56
2021/12/10 09:39:01;;;;;;;5.93;5.25;;;5.60;96.40;;;;;;5035926;28;20202;-56
2021/12/10 09:41:28;;;;;;;8.75;7.30;;;5.60;96.30;;;;;;5035294;28;20706;-56
2021/12/10 09:43:56;;;;;;;7.82;5.97;;;5.60;96.30;;;;;;5035809;28;20206;-56
2021/12/10 09:46:23;;;;;;;9.52;6.45;;;5.70;96.20;;;;;;5035523;28;20209;-55
2021/12/10 09:48:52;;;;;;;8.75;6.32;;;5.70;96.00;;;;;;5035141;28;20268;-56
2021/12/10 09:51:24;;;;;;;8.80;6.30;;;5.70;96.00;;;;;;5034945;28;20725;-55
2021/12/10 09:53:55;;;;;;;8.80;5.70;;;5.70;95.80;;;;;;5035350;28;20213;-54
2021/12/10 09:56:24;;;;;;;7.00;5.53;;;5.70;95.60;;;;;;5036135;28;20187;-54
2021/12/10 09:58:53;;;;;;;8.20;6.60;;;5.70;95.60;;;;;;5035204;28;20615;-57
2021/12/10 10:01:24;;;;;;;9.13;5.97;;;5.70;95.50;;;;;;5035583;28;20276;-54
2021/12/10 10:04:00;;;;;;;8.73;6.57;;;5.70;95.50;;;;;;5035085;28;20202;-55
2021/12/10 10:06:28;;;;;;;10.38;7.00;;;5.70;95.40;;;;;;5035452;28;20182;-56
2021/12/10 10:08:55;;;;;;;12.88;6.85;;;5.70;95.30;;;;;;5035283;28;20226;-56
2021/12/10 10:11:26;;;;;;;10.48;7.20;;;5.70;95.30;;;;;;5035119;28;20710;-56
2021/12/10 10:13:55;;;;;;;12.38;6.10;;;5.80;95.20;;;;;;5035532;28;20198;-56
2021/12/10 10:16:24;;;;;;;8.70;6.70;;;5.80;95.10;;;;;;5035454;28;20206;-56
2021/12/10 10:18:53;;;;;;;9.48;6.47;;;5.90;95.10;;;;;;5035790;28;20252;-56
2021/12/10 10:21:26;;;;;;;11.55;7.13;;;5.90;94.90;;;;;;5037225;28;20234;-55
2021/12/10 10:23:53;;;;;;;7.07;6.22;;;5.90;94.60;;;;;;5035965;28;20197;-57
2021/12/10 10:26:24;;;;;;;7.35;6.03;;;5.90;94.60;;;;;;5036088;28;20213;-57
2021/12/10 10:28:52;;;;;;;10.57;7.13;;;5.90;94.60;;;;;;5037330;28;20301;-57
2021/12/10 10:31:23;;;;;;;10.07;6.93;;;5.90;94.50;;;;;;5036173;28;20229;-55
2021/12/10 10:33:55;;;;;;;10.82;7.65;;;6.00;94.50;;;;;;5036324;28;20194;-56
2021/12/10 10:36:26;;;;;;;7.40;5.63;;;6.00;94.50;;;;;;5036667;28;20195;-57
2021/12/10 10:38:58;;;;;;;13.70;7.63;;;6.10;94.30;;;;;;5036568;28;20567;-57
2021/12/10 10:41:27;;;;;;;7.95;6.40;;;6.20;94.20;;;;;;5035064;28;20226;-56
2021/12/10 10:43:57;;;;;;;6.85;6.07;;;6.20;94.00;;;;;;5035008;28;20202;-57
2021/12/10 10:46:24;;;;;;;11.05;6.60;;;6.30;93.90;;;;;;5035132;28;20209;-57
2021/12/10 10:48:51;;;;;;;5.95;5.30;;;6.30;93.60;;;;;;5034226;28;20210;-57
2021/12/10 10:51:27;;;;;;;8.38;6.95;;;6.30;93.50;;;;;;5034273;28;20226;-57
2021/12/10 10:53:56;;;;;;;8.32;6.80;;;6.40;93.50;;;;;;5034447;28;20657;-57
2021/12/10 10:56:28;;;;;;;7.93;6.30;;;6.50;93.50;;;;;;5034335;28;20198;-57
2021/12/10 10:59:00;;;;;;;10.57;6.38;;;6.60;93.30;;;;;;5034338;28;20198;-57
2021/12/10 11:01:32;;;;;;;8.95;6.60;;;6.60;93.00;;;;;;5033538;28;20230;-57
2021/12/10 11:04:05;;;;;;;6.13;5.35;;;6.60;92.90;;;;;;5034139;28;20190;-57
2021/12/10 11:06:37;;;;;;;7.15;5.53;;;6.70;92.70;;;;;;5033793;28;20198;-56
2021/12/10 11:09:13;;;;;;;6.03;5.30;;;6.60;92.50;;;;;;5033874;28;20272;-57
2021/12/10 11:11:45;;;;;;;10.18;6.10;;;6.50;92.40;;;;;;5033763;28;20778;-57
2021/12/10 11:14:16;;;;;;;6.32;5.63;;;6.40;92.30;;;;;;5033998;28;20210;-57
2021/12/10 11:16:45;;;;;;;7.40;6.20;;;6.30;92.30;;;;;;5033120;28;20203;-56
2021/12/10 11:19:15;;;;;;;7.03;6.13;;;6.30;92.50;;;;;;5033506;28;20700;-57
2021/12/10 11:21:47;;;;;;;8.93;6.03;;;6.20;92.60;;;;;;5033317;28;20237;-58
2021/12/10 11:24:23;;;;;;;8.55;5.78;;;6.20;92.50;;;;;;5033879;28;20186;-56
2021/12/10 11:26:54;;;;;;;7.35;5.82;;;6.20;92.60;;;;;;5033646;28;20191;-58
2021/12/10 11:29:44;;;;;;;8.65;7.00;;;6.10;92.60;;;;;;5033531;28;20593;-59
2021/12/10 11:32:15;;;;;;;10.52;6.07;;;6.10;92.80;;;;;;5029747;28;20758;-58
2021/12/10 11:34:47;;;;;;;8.15;5.35;;;6.10;92.70;;;;;;5034121;28;20227;-57
2021/12/10 11:37:17;;;;;;;8.15;5.53;;;6.20;92.80;;;;;;5033254;28;20642;-57
2021/12/10 11:39:50;;;;;;;8.45;5.88;;;6.30;92.80;;;;;;5033319;28;20190;-58
2021/12/10 11:42:43;;;;;;;7.90;5.40;;;6.30;92.70;;;;;;5033195;28;20191;-58
2021/12/10 11:45:42;;;;;;;7.35;5.63;;;6.50;92.50;;;;;;5033609;28;20186;-58
2021/12/10 11:48:12;;;;;;;10.43;6.90;;;6.50;92.20;;;;;;5021638;28;20198;-57
2021/12/10 11:50:44;;;;;;;9.95;7.20;;;6.60;92.20;;;;;;5033178;28;20226;-57
2021/12/10 11:53:16;;;;;;;7.25;5.57;;;6.60;92.10;;;;;;5033196;28;20191;-58
2021/12/10 11:55:57;;;;;;;7.32;6.18;;;6.70;92.00;;;;;;5033007;28;20187;-59
2021/12/10 11:58:25;;;;;;;8.05;5.85;;;6.60;91.70;;;;;;5033386;28;20190;-58
2021/12/10 12:00:53;;;;;;;6.78;5.90;;;6.60;91.80;;;;;;5033094;28;20729;-58
2021/12/10 12:03:23;;;;;;;7.57;4.95;;;6.60;91.90;;;;;;5033015;28;20213;-58
2021/12/10 12:05:52;;;;;;;8.07;5.95;;;6.60;91.80;;;;;;5032742;28;20209;-58
2021/12/10 12:08:20;;;;;;;7.97;5.40;;;6.60;91.70;;;;;;5032730;28;20206;-58
2021/12/10 12:10:50;;;;;;;7.15;5.90;;;6.60;91.50;;;;;;5032811;28;20234;-58
2021/12/10 12:13:26;;;;;;;8.43;5.55;;;6.50;91.40;;;;;;5032523;28;20202;-58
2021/12/10 12:15:56;;;;;;;10.32;7.00;;;6.50;91.50;;;;;;5032806;28;20187;-57
2021/12/10 12:18:26;;;;;;;9.45;5.25;;;6.40;91.50;;;;;;5032802;28;20236;-58
2021/12/10 12:20:56;;;;;;;7.68;5.60;;;6.50;91.60;;;;;;5032870;28;20229;-58
2021/12/10 12:26:16;;;;;;;6.07;5.43;;;6.50;91.50;;;;;;5033612;28;20218;-58
2021/12/10 12:28:46;;;;;;;8.98;5.35;;;6.60;91.50;;;;;;5032828;28;20198;-57
2021/12/10 12:31:16;;;;;;;8.60;5.22;;;6.60;91.40;;;;;;5036403;28;20226;-56
2021/12/10 12:33:57;;;;;;;5.57;3.42;;;6.60;91.20;;;;;;5037611;28;20190;-58
2021/12/10 12:36:28;;;;;;;6.88;3.35;;;6.60;91.00;;;;;;5036942;28;20191;-57
2021/12/10 12:38:56;;;;;;;4.95;2.85;;;6.60;90.70;;;;;;5036628;28;20587;-58
2021/12/10 12:41:26;;;;;;;3.50;2.40;;;6.60;90.30;;;;;;5036138;28;20214;-58
2021/12/10 12:44:11;;;;;;;3.60;2.22;;;6.60;90.00;;;;;;5036326;28;20307;-58
2021/12/10 12:47:12;;;;;;;2.60;2.22;;;6.60;89.40;;;;;;5036383;28;20190;-57
2021/12/10 12:50:02;;;;;;;3.10;1.88;;;6.60;88.30;;;;;;5035929;28;20207;-57
2021/12/10 12:52:36;;;;;;;6.10;2.58;;;6.60;87.40;;;;;;5036411;28;20190;-57
2021/12/10 12:55:36;;;;;;;3.20;2.05;;;6.60;86.60;;;;;;5036298;28;20192;-57
2021/12/10 12:58:16;;;;;;;3.05;2.55;;;6.60;86.10;;;;;;5036464;28;20581;-58
2021/12/10 13:00:50;;;;;;;3.58;3.28;;;6.60;85.50;;;;;;5035862;28;20214;-58
2021/12/10 13:03:22;;;;;;;5.13;2.80;;;6.60;85.10;;;;;;5036275;28;20193;-56
2021/12/10 13:05:52;;;;;;;3.70;2.80;;;6.70;84.80;;;;;;5035953;28;20240;-56
2021/12/10 13:08:26;;;;;;;4.10;2.50;;;6.80;84.30;;;;;;5036155;28;20202;-57
2021/12/10 13:11:07;;;;;;;3.88;2.65;;;6.80;83.60;;;;;;5036050;28;20238;-58
2021/12/10 13:13:43;;;;;;;4.05;2.70;;;6.80;83.00;;;;;;5036934;28;20572;-56
2021/12/10 13:16:12;;;;;;;3.28;2.17;;;6.80;82.50;;;;;;5036250;28;20630;-57
2021/12/10 13:18:42;;;;;;;3.85;2.50;;;6.70;81.90;;;;;;5035852;28;20221;-57
2021/12/10 13:21:13;;;;;;;3.65;2.60;;;6.60;81.90;;;;;;5035403;28;20248;-57